createdAt,value
2023-04-19T00:00:03.449Z,7.49
2023-04-19T00:01:03.460Z,7.18
2023-04-19T00:02:03.491Z,6.81
2023-04-19T00:03:03.594Z,7.04
2023-04-19T00:04:03.571Z,7.13
2023-04-19T00:05:03.546Z,7.65
2023-04-19T00:06:03.472Z,8.52
2023-04-19T00:07:03.498Z,9.35
2023-04-19T00:08:03.510Z,10.74
2023-04-19T00:09:03.568Z,12.07
2023-04-19T00:10:03.608Z,13.60
2023-04-19T00:11:03.625Z,15.18
2023-04-19T00:12:03.644Z,17.46
2023-04-19T00:13:03.649Z,18.95
2023-04-19T00:14:03.653Z,20.43
2023-04-19T00:15:03.631Z,21.34
2023-04-19T00:16:03.676Z,23.85
2023-04-19T00:17:03.790Z,24.85
2023-04-19T00:18:03.690Z,25.74
2023-04-19T00:19:03.645Z,26.57
2023-04-19T00:20:03.656Z,28.23
2023-04-19T00:21:03.654Z,29.19
2023-04-19T00:22:03.655Z,30.45
2023-04-19T00:23:03.651Z,30.96
2023-04-19T00:24:03.664Z,30.86
2023-04-19T00:25:03.667Z,31.07
2023-04-19T00:26:03.697Z,31.81
2023-04-19T00:27:03.688Z,30.61
2023-04-19T00:28:03.727Z,29.07
2023-04-19T00:29:03.755Z,29.32
2023-04-19T00:30:03.759Z,29.76
2023-04-19T00:31:03.836Z,29.82
2023-04-19T00:32:03.793Z,30.07
2023-04-19T00:33:03.909Z,29.41
2023-04-19T00:34:03.852Z,27.80
2023-04-19T00:35:03.854Z,27.42
2023-04-19T00:36:03.866Z,25.99
2023-04-19T00:37:03.856Z,24.32
2023-04-19T00:38:03.892Z,23.22
2023-04-19T00:39:03.916Z,21.34
2023-04-19T00:40:03.901Z,19.63
2023-04-19T00:41:03.940Z,19.51
2023-04-19T00:42:03.975Z,18.51
2023-04-19T00:43:03.967Z,18.55
2023-04-19T00:44:04.025Z,18.00
2023-04-19T00:45:04.070Z,17.52
2023-04-19T00:46:04.126Z,17.20
2023-04-19T00:47:04.087Z,17.25
2023-04-19T00:48:04.146Z,17.18
2023-04-19T00:49:04.147Z,16.88
2023-04-19T00:50:04.274Z,16.68
2023-04-19T00:51:04.205Z,17.19
2023-04-19T00:52:04.231Z,17.14
2023-04-19T00:53:04.269Z,17.14
2023-04-19T00:54:04.271Z,16.98
2023-04-19T00:55:04.251Z,16.93
2023-04-19T00:56:04.264Z,16.56
2023-04-19T00:57:04.284Z,15.94
2023-04-19T00:58:04.291Z,15.88
2023-04-19T00:59:04.340Z,15.50
2023-04-19T01:00:04.320Z,14.96
2023-04-19T01:01:04.382Z,14.47
2023-04-19T01:02:04.375Z,14.66
2023-04-19T01:03:04.557Z,14.54
2023-04-19T01:04:04.493Z,14.60
2023-04-19T01:05:04.403Z,14.89
2023-04-19T01:06:04.413Z,15.32
2023-04-19T01:07:04.431Z,15.14
2023-04-19T01:08:04.458Z,15.54
2023-04-19T01:09:04.441Z,15.70
2023-04-19T01:10:04.470Z,15.96
2023-04-19T01:11:04.497Z,15.78
2023-04-19T01:12:04.504Z,15.88
2023-04-19T01:13:04.513Z,15.79
2023-04-19T01:14:04.539Z,15.67
2023-04-19T01:15:04.527Z,15.58
2023-04-19T01:16:04.578Z,15.29
2023-04-19T01:17:04.542Z,15.34
2023-04-19T01:18:04.592Z,15.77
2023-04-19T01:19:04.553Z,15.67
2023-04-19T01:20:04.586Z,16.12
2023-04-19T01:21:04.570Z,15.64
2023-04-19T01:22:04.608Z,15.43
2023-04-19T01:23:04.623Z,15.24
2023-04-19T01:24:04.643Z,15.03
2023-04-19T01:25:04.627Z,14.77
2023-04-19T01:26:04.648Z,14.33
2023-04-19T01:27:04.656Z,13.48
2023-04-19T01:28:04.648Z,12.94
2023-04-19T01:29:04.677Z,12.57
2023-04-19T01:30:04.704Z,12.21
2023-04-19T01:31:04.722Z,12.05
2023-04-19T01:32:04.680Z,12.46
2023-04-19T01:33:04.726Z,13.00
2023-04-19T01:34:04.687Z,12.49
2023-04-19T01:35:04.782Z,12.25
2023-04-19T01:36:04.731Z,12.05
2023-04-19T01:37:04.703Z,12.17
2023-04-19T01:38:04.777Z,12.15
2023-04-19T01:39:04.743Z,12.07
2023-04-19T01:40:04.757Z,11.45
2023-04-19T01:41:04.784Z,11.00
2023-04-19T01:42:04.770Z,10.78
2023-04-19T01:43:04.764Z,10.76
2023-04-19T01:44:04.818Z,10.23
2023-04-19T01:45:04.802Z,10.40
2023-04-19T01:46:04.807Z,10.05
2023-04-19T01:47:04.919Z,9.75
2023-04-19T01:48:04.931Z,9.71
2023-04-19T01:49:04.851Z,9.56
2023-04-19T01:50:04.924Z,9.82
2023-04-19T01:51:04.892Z,9.55
2023-04-19T01:52:04.927Z,9.59
2023-04-19T01:53:04.968Z,8.77
2023-04-19T01:54:05.032Z,8.66
2023-04-19T01:55:05.080Z,8.60
2023-04-19T01:56:05.049Z,8.61
2023-04-19T01:57:04.992Z,8.61
2023-04-19T01:58:04.970Z,8.36
2023-04-19T01:59:04.989Z,8.51
2023-04-19T02:00:05.021Z,8.44
2023-04-19T02:01:05.005Z,8.47
2023-04-19T02:02:05.016Z,8.39
2023-04-19T02:03:05.061Z,8.08
2023-04-19T02:04:05.120Z,7.78
2023-04-19T02:05:04.941Z,7.82
2023-04-19T02:06:04.952Z,7.94
2023-04-19T02:07:04.959Z,8.18
2023-04-19T02:08:04.917Z,8.09
2023-04-19T02:09:04.936Z,8.32
2023-04-19T02:10:04.985Z,8.40
2023-04-19T02:11:05.007Z,8.42
2023-04-19T02:12:05.048Z,8.48
2023-04-19T02:13:05.069Z,8.68
2023-04-19T02:14:05.169Z,8.71
2023-04-19T02:15:05.173Z,8.98
2023-04-19T02:16:05.271Z,9.12
2023-04-19T02:17:05.235Z,8.95
2023-04-19T02:18:05.351Z,8.87
2023-04-19T02:19:05.345Z,8.87
2023-04-19T02:20:05.373Z,8.81
2023-04-19T02:21:05.410Z,8.83
2023-04-19T02:22:05.451Z,8.94
2023-04-19T02:23:05.486Z,8.73
2023-04-19T02:24:05.557Z,8.78
2023-04-19T02:25:05.602Z,8.85
2023-04-19T02:26:05.626Z,8.86
2023-04-19T02:27:05.710Z,8.80
2023-04-19T02:28:05.776Z,8.90
2023-04-19T02:29:07.076Z,8.80
2023-04-19T02:30:05.882Z,8.90
2023-04-19T02:31:05.950Z,8.86
2023-04-19T02:32:06.087Z,8.74
2023-04-19T02:33:06.033Z,9.04
2023-04-19T02:34:06.070Z,9.49
2023-04-19T02:35:06.114Z,9.89
2023-04-19T02:36:06.148Z,9.92
2023-04-19T02:37:06.210Z,10.02
2023-04-19T02:38:06.249Z,10.89
2023-04-19T02:39:06.243Z,11.65
2023-04-19T02:40:06.301Z,11.90
2023-04-19T02:41:06.311Z,12.57
2023-04-19T02:42:06.356Z,12.96
2023-04-19T02:43:06.363Z,13.76
2023-04-19T02:44:06.430Z,14.17
2023-04-19T02:45:06.416Z,13.87
2023-04-19T02:46:06.570Z,13.84
2023-04-19T02:47:06.476Z,13.54
2023-04-19T02:48:06.566Z,13.57
2023-04-19T02:49:06.540Z,13.44
2023-04-19T02:50:06.603Z,13.52
2023-04-19T02:51:06.599Z,13.14
2023-04-19T02:52:06.633Z,13.32
2023-04-19T02:53:06.648Z,13.68
2023-04-19T02:54:06.700Z,13.57
2023-04-19T02:55:06.725Z,13.81
2023-04-19T02:56:06.706Z,14.17
2023-04-19T02:57:06.755Z,13.97
2023-04-19T02:58:06.797Z,13.64
2023-04-19T02:59:06.838Z,13.62
2023-04-19T03:00:06.846Z,13.59
2023-04-19T03:01:06.863Z,13.55
2023-04-19T03:02:06.960Z,12.97
2023-04-19T03:03:07.132Z,13.13
2023-04-19T03:04:07.067Z,13.30
2023-04-19T03:05:06.995Z,13.44
2023-04-19T03:06:07.105Z,13.23
2023-04-19T03:07:07.131Z,12.84
2023-04-19T03:08:07.176Z,13.04
2023-04-19T03:09:07.177Z,13.07
2023-04-19T03:10:07.237Z,12.98
2023-04-19T03:11:07.278Z,12.73
2023-04-19T03:12:07.301Z,12.68
2023-04-19T03:13:07.362Z,12.89
2023-04-19T03:14:07.493Z,12.86
2023-04-19T03:15:07.472Z,12.86
2023-04-19T03:16:07.593Z,12.56
2023-04-19T03:17:07.574Z,12.45
2023-04-19T03:18:07.665Z,11.91
2023-04-19T03:19:07.649Z,11.67
2023-04-19T03:20:07.730Z,11.76
2023-04-19T03:21:07.737Z,11.87
2023-04-19T03:22:07.838Z,12.15
2023-04-19T03:23:07.844Z,12.37
2023-04-19T03:24:07.925Z,12.55
2023-04-19T03:25:07.943Z,12.88
2023-04-19T03:26:08.033Z,12.97
2023-04-19T03:27:08.083Z,12.87
2023-04-19T03:28:08.148Z,12.72
2023-04-19T03:29:08.188Z,12.53
2023-04-19T03:30:08.253Z,12.53
2023-04-19T03:31:08.347Z,12.55
2023-04-19T03:32:08.351Z,12.54
2023-04-19T03:33:08.459Z,12.51
2023-04-19T03:34:08.482Z,12.35
2023-04-19T03:35:08.476Z,12.79
2023-04-19T03:36:08.549Z,12.99
2023-04-19T03:37:08.592Z,13.87
2023-04-19T03:38:08.667Z,14.42
2023-04-19T03:39:08.714Z,14.61
2023-04-19T03:40:08.726Z,14.92
2023-04-19T03:41:08.778Z,14.74
2023-04-19T03:42:08.795Z,14.56
2023-04-19T03:43:08.859Z,14.19
2023-04-19T03:44:08.881Z,14.34
2023-04-19T03:45:08.932Z,14.54
2023-04-19T03:46:09.114Z,14.86
2023-04-19T03:47:09.021Z,15.81
2023-04-19T03:48:09.119Z,16.94
2023-04-19T03:49:09.104Z,18.43
2023-04-19T03:50:09.173Z,19.34
2023-04-19T03:51:09.218Z,20.30
2023-04-19T03:52:09.263Z,20.91
2023-04-19T03:53:09.310Z,21.04
2023-04-19T03:54:09.368Z,21.74
2023-04-19T03:55:09.460Z,21.95
2023-04-19T03:56:09.511Z,22.61
2023-04-19T03:57:09.550Z,22.82
2023-04-19T03:58:09.614Z,23.24
2023-04-19T03:59:09.691Z,22.92
2023-04-19T04:00:09.742Z,22.52
2023-04-19T04:01:09.820Z,22.18
2023-04-19T04:02:09.929Z,21.63
2023-04-19T04:03:11.028Z,21.66
2023-04-19T04:04:10.138Z,21.73
2023-04-19T04:05:09.976Z,22.03
2023-04-19T04:06:09.855Z,22.10
2023-04-19T04:07:09.826Z,22.23
2023-04-19T04:08:09.816Z,22.20
2023-04-19T04:09:09.818Z,21.89
2023-04-19T04:10:09.786Z,22.14
2023-04-19T04:11:09.785Z,22.04
2023-04-19T04:12:09.866Z,21.88
2023-04-19T04:13:09.933Z,22.22
2023-04-19T04:14:09.980Z,22.34
2023-04-19T04:15:10.102Z,22.78
2023-04-19T04:16:10.117Z,23.61
2023-04-19T04:17:10.159Z,24.67
2023-04-19T04:18:10.281Z,25.42
2023-04-19T04:19:10.287Z,25.77
2023-04-19T04:20:10.337Z,25.63
2023-04-19T04:21:10.389Z,25.92
2023-04-19T04:22:10.456Z,26.33
2023-04-19T04:23:10.534Z,26.80
2023-04-19T04:24:10.590Z,27.09
2023-04-19T04:25:10.632Z,27.52
2023-04-19T04:26:10.726Z,27.34
2023-04-19T04:27:10.813Z,26.99
2023-04-19T04:28:10.874Z,26.75
2023-04-19T04:29:10.937Z,26.87
2023-04-19T04:30:10.974Z,26.85
2023-04-19T04:31:10.996Z,25.77
2023-04-19T04:32:11.259Z,24.45
2023-04-19T04:33:11.096Z,23.26
2023-04-19T04:34:11.160Z,22.47
2023-04-19T04:35:11.185Z,21.90
2023-04-19T04:36:11.267Z,22.09
2023-04-19T04:37:11.336Z,21.84
2023-04-19T04:38:23.651Z,21.87
2023-04-19T04:39:12.418Z,21.89
2023-04-19T04:40:11.413Z,21.72
2023-04-19T04:41:11.360Z,21.47
2023-04-19T04:42:11.412Z,21.60
2023-04-19T04:43:11.398Z,22.25
2023-04-19T04:44:12.847Z,23.13
2023-04-19T04:45:11.363Z,23.50
2023-04-19T04:46:11.413Z,23.30
2023-04-19T04:47:11.382Z,23.33
2023-04-19T04:48:11.450Z,23.20
2023-04-19T04:49:11.493Z,23.44
2023-04-19T04:50:11.628Z,23.66
2023-04-19T04:51:11.613Z,24.09
2023-04-19T04:52:11.683Z,24.83
2023-04-19T04:53:13.057Z,24.79
2023-04-19T04:54:11.806Z,24.73
2023-04-19T04:55:11.850Z,25.00
2023-04-19T04:56:11.900Z,25.15
2023-04-19T04:57:11.952Z,25.20
2023-04-19T04:58:12.015Z,25.45
2023-04-19T04:59:12.076Z,25.46
2023-04-19T05:00:12.126Z,25.40
2023-04-19T05:01:12.220Z,25.36
2023-04-19T05:02:12.325Z,25.46
2023-04-19T05:03:12.436Z,25.62
2023-04-19T05:04:12.371Z,25.86
2023-04-19T05:05:12.400Z,25.92
2023-04-19T05:06:12.475Z,26.64
2023-04-19T05:07:12.532Z,27.90
2023-04-19T05:08:12.573Z,28.12
2023-04-19T05:09:12.652Z,28.67
2023-04-19T05:10:12.721Z,29.49
2023-04-19T05:11:12.813Z,30.41
2023-04-19T05:12:12.830Z,31.15
2023-04-19T05:13:12.890Z,32.10
2023-04-19T05:14:13.076Z,33.49
2023-04-19T05:15:12.995Z,34.57
2023-04-19T05:16:13.149Z,35.41
2023-04-19T05:17:13.117Z,35.80
2023-04-19T05:18:13.133Z,35.59
2023-04-19T05:19:13.212Z,34.96
2023-04-19T05:20:13.264Z,34.44
2023-04-19T05:21:13.315Z,33.26
2023-04-19T05:22:13.368Z,33.00
2023-04-19T05:23:13.418Z,32.20
2023-04-19T05:24:13.502Z,32.16
2023-04-19T05:25:13.428Z,31.72
2023-04-19T05:26:13.488Z,31.30
2023-04-19T05:27:13.487Z,31.76
2023-04-19T05:28:13.517Z,31.51
2023-04-19T05:29:13.564Z,31.73
2023-04-19T05:30:13.606Z,31.96
2023-04-19T05:31:13.643Z,32.45
2023-04-19T05:32:13.698Z,32.96
2023-04-19T05:33:13.728Z,33.36
2023-04-19T05:34:13.990Z,33.86
2023-04-19T05:35:13.894Z,33.60
2023-04-19T05:36:13.920Z,33.80
2023-04-19T05:37:14.869Z,35.25
2023-04-19T05:38:14.027Z,35.72
2023-04-19T05:39:14.109Z,35.75
2023-04-19T05:40:14.136Z,34.29
2023-04-19T05:41:14.163Z,33.64
2023-04-19T05:42:14.197Z,34.85
2023-04-19T05:43:14.198Z,37.15
2023-04-19T05:44:14.554Z,39.81
2023-04-19T05:45:14.191Z,41.78
2023-04-19T05:46:14.311Z,41.43
2023-04-19T05:47:14.310Z,41.22
2023-04-19T05:48:14.376Z,45.08
2023-04-19T05:49:14.870Z,48.22
2023-04-19T05:50:14.462Z,50.54
2023-04-19T05:51:14.500Z,56.80
2023-04-19T05:52:14.529Z,61.71
2023-04-19T05:53:14.572Z,66.56
2023-04-19T05:54:15.333Z,69.83
2023-04-19T05:55:14.678Z,79.47
2023-04-19T05:56:14.626Z,82.02
2023-04-19T05:57:14.626Z,88.02
2023-04-19T05:58:14.639Z,96.41
2023-04-19T05:59:14.914Z,100.42
2023-04-19T06:00:15.379Z,105.32
2023-04-19T06:01:14.817Z,107.79
2023-04-19T06:02:14.908Z,113.98
2023-04-19T06:03:15.156Z,119.08
2023-04-19T06:04:15.405Z,122.99
2023-04-19T06:05:15.112Z,134.34
2023-04-19T06:06:15.215Z,134.01
2023-04-19T06:07:27.292Z,140.88
2023-04-19T06:08:16.094Z,141.30
2023-04-19T06:09:16.864Z,143.27
2023-04-19T06:10:15.102Z,147.90
2023-04-19T06:11:23.219Z,155.21
2023-04-19T06:12:16.045Z,142.06
2023-04-19T06:13:15.055Z,146.90
2023-04-19T06:14:15.273Z,155.84
2023-04-19T06:15:15.048Z,175.27
2023-04-19T06:16:15.107Z,201.65
2023-04-19T06:17:15.015Z,201.95
2023-04-19T06:18:21.315Z,206.24
2023-04-19T06:19:16.008Z,206.61
2023-04-19T06:20:15.004Z,208.42
2023-04-19T06:21:14.998Z,212.55
2023-04-19T06:22:15.013Z,225.55
2023-04-19T06:23:15.230Z,247.38
2023-04-19T06:24:15.527Z,246.76
2023-04-19T06:25:14.966Z,250.80
2023-04-19T06:26:14.956Z,258.63
2023-04-19T06:27:14.942Z,271.97
2023-04-19T06:28:14.936Z,282.21
2023-04-19T06:29:14.961Z,290.97
2023-04-19T06:30:14.931Z,288.42
2023-04-19T06:31:14.959Z,290.59
2023-04-19T06:32:14.925Z,293.78
2023-04-19T06:33:14.915Z,301.15
2023-04-19T06:34:14.914Z,304.04
2023-04-19T06:35:14.906Z,309.60
2023-04-19T06:36:14.939Z,352.16
2023-04-19T06:37:15.019Z,347.22
2023-04-19T06:38:15.040Z,369.12
2023-04-19T06:39:15.085Z,376.74
2023-04-19T06:40:15.119Z,373.08
2023-04-19T06:41:15.212Z,374.80
2023-04-19T06:42:15.231Z,372.26
2023-04-19T06:43:15.269Z,370.19
2023-04-19T06:44:15.608Z,370.63
2023-04-19T06:45:15.388Z,375.71
2023-04-19T06:46:15.453Z,365.62
2023-04-19T06:47:15.444Z,374.14
2023-04-19T06:48:15.475Z,373.59
2023-04-19T06:49:15.886Z,364.08
2023-04-19T06:50:15.497Z,368.40
2023-04-19T06:51:15.651Z,378.35
2023-04-19T06:52:15.527Z,393.31
2023-04-19T06:53:15.572Z,423.69
2023-04-19T06:54:15.880Z,480.26
2023-04-19T06:55:15.588Z,508.57
2023-04-19T06:56:15.594Z,539.83
2023-04-19T06:57:15.637Z,544.50
2023-04-19T06:58:15.645Z,594.06
2023-04-19T06:59:15.645Z,604.10
2023-04-19T07:00:15.629Z,668.19
2023-04-19T07:01:15.661Z,670.52
2023-04-19T07:02:15.686Z,684.83
2023-04-19T07:03:15.768Z,711.96
2023-04-19T07:04:16.126Z,707.43
2023-04-19T07:05:15.666Z,731.39
2023-04-19T07:06:15.650Z,773.55
2023-04-19T07:07:15.637Z,805.05
2023-04-19T07:08:15.652Z,789.52
2023-04-19T07:09:15.662Z,794.64
2023-04-19T07:10:16.541Z,799.82
2023-04-19T07:11:15.755Z,801.08
2023-04-19T07:12:15.802Z,805.69
2023-04-19T07:13:15.805Z,836.81
2023-04-19T07:14:16.017Z,845.57
2023-04-19T07:15:15.844Z,820.13
2023-04-19T07:16:15.917Z,812.46
2023-04-19T07:17:15.947Z,829.85
2023-04-19T07:18:16.018Z,840.97
2023-04-19T07:19:16.065Z,848.49
2023-04-19T07:20:16.094Z,863.56
2023-04-19T07:21:16.153Z,887.94
2023-04-19T07:22:16.252Z,864.37
2023-04-19T07:23:16.278Z,859.50
2023-04-19T07:24:16.562Z,864.55
2023-04-19T07:25:16.406Z,898.24
2023-04-19T07:26:16.450Z,854.25
2023-04-19T07:27:16.541Z,857.86
2023-04-19T07:28:16.586Z,854.64
2023-04-19T07:29:16.668Z,866.89
2023-04-19T07:30:16.700Z,847.87
2023-04-19T07:31:16.759Z,848.33
2023-04-19T07:32:16.875Z,900.75
2023-04-19T07:33:16.905Z,896.99
2023-04-19T07:34:17.615Z,886.72
2023-04-19T07:35:16.947Z,920.65
2023-04-19T07:36:17.029Z,886.39
2023-04-19T07:37:17.048Z,941.19
2023-04-19T07:38:17.081Z,968.05
2023-04-19T07:39:17.709Z,925.41
2023-04-19T07:40:17.211Z,933.17
2023-04-19T07:41:17.249Z,910.97
2023-04-19T07:42:17.272Z,948.18
2023-04-19T07:43:17.370Z,910.17
2023-04-19T07:44:17.660Z,955.40
2023-04-19T07:45:17.439Z,967.46
2023-04-19T07:46:17.773Z,913.46
2023-04-19T07:47:17.486Z,935.84
2023-04-19T07:48:17.585Z,984.49
2023-04-19T07:49:17.936Z,919.88
2023-04-19T07:50:17.638Z,491.98
2023-04-19T07:51:17.652Z,361.37
2023-04-19T07:52:17.706Z,335.02
2023-04-19T07:53:17.723Z,426.79
2023-04-19T07:54:17.975Z,450.58
2023-04-19T07:55:17.762Z,430.97
2023-04-19T07:56:17.742Z,390.86
2023-04-19T07:57:17.754Z,391.16
2023-04-19T07:58:17.789Z,358.81
2023-04-19T07:59:17.813Z,331.92
2023-04-19T08:00:17.874Z,322.97
2023-04-19T08:01:17.936Z,294.90
2023-04-19T08:02:18.001Z,275.61
2023-04-19T08:03:18.156Z,260.59
2023-04-19T08:04:18.960Z,252.27
2023-04-19T08:05:18.279Z,250.80
2023-04-19T08:06:18.183Z,235.96
2023-04-19T08:07:18.225Z,245.91
2023-04-19T08:08:18.266Z,247.61
2023-04-19T08:09:18.400Z,261.93
2023-04-19T08:10:18.315Z,262.11
2023-04-19T08:11:18.306Z,262.02
2023-04-19T08:12:32.758Z,257.38
2023-04-19T08:13:19.279Z,262.91
2023-04-19T08:14:32.225Z,264.73
2023-04-19T08:15:56.942Z,262.87
2023-04-19T08:17:05.817Z,263.53
2023-04-19T08:17:25.733Z,264.20
2023-04-19T08:18:19.367Z,264.47
2023-04-19T08:19:18.261Z,273.30
2023-04-19T08:20:18.253Z,284.80
2023-04-19T08:21:18.550Z,309.39
2023-04-19T08:22:18.230Z,337.02
2023-04-19T08:23:24.521Z,354.39
2023-04-19T08:24:19.308Z,355.09
2023-04-19T08:25:18.209Z,357.04
2023-04-19T08:26:18.213Z,360.06
2023-04-19T08:27:18.203Z,364.56
2023-04-19T08:28:18.208Z,380.64
2023-04-19T08:29:18.488Z,390.00
2023-04-19T08:30:18.174Z,389.19
2023-04-19T08:31:18.336Z,400.41
2023-04-19T08:32:18.317Z,401.14
2023-04-19T08:33:18.234Z,403.86
2023-04-19T08:34:18.213Z,421.07
2023-04-19T08:35:18.482Z,420.26
2023-04-19T08:36:22.414Z,433.15
2023-04-19T08:37:19.111Z,433.90
2023-04-19T08:38:18.099Z,428.96
2023-04-19T08:39:29.086Z,433.28
2023-04-19T08:40:19.096Z,433.76
2023-04-19T08:41:18.095Z,436.01
2023-04-19T08:43:19.077Z,433.95
2023-04-19T08:44:32.679Z,436.90
2023-04-19T08:45:27.822Z,435.07
2023-04-19T08:46:19.101Z,435.14
2023-04-19T08:47:29.635Z,442.30
2023-04-19T08:48:19.081Z,435.91
2023-04-19T08:49:18.279Z,443.19
2023-04-19T08:50:31.001Z,457.63
2023-04-19T08:51:19.004Z,436.27
2023-04-19T08:52:18.015Z,443.52
2023-04-19T08:53:24.902Z,445.98
2023-04-19T08:54:19.012Z,270.10
2023-04-19T08:55:17.975Z,102.67
2023-04-19T08:56:31.931Z,66.77
2023-04-19T08:57:19.001Z,48.73
2023-04-19T08:58:26.917Z,56.69
2023-04-19T08:59:19.086Z,54.38
2023-04-19T09:00:17.962Z,67.14
2023-04-19T09:01:33.125Z,104.75
2023-04-19T09:02:19.067Z,140.34
2023-04-19T09:03:18.167Z,144.00
2023-04-19T09:04:34.514Z,133.67
2023-04-19T09:05:19.147Z,135.07
2023-04-19T09:06:18.080Z,132.30
2023-04-19T09:07:17.910Z,131.84
2023-04-19T09:08:17.870Z,132.13
2023-04-19T09:10:17.937Z,132.30
2023-04-19T09:11:17.881Z,128.74
2023-04-19T09:12:18.194Z,130.61
2023-04-19T09:13:17.840Z,131.05
2023-04-19T09:14:17.846Z,132.02
2023-04-19T09:15:17.836Z,127.34
2023-04-19T09:16:17.992Z,124.52
2023-04-19T09:17:17.918Z,78.11
2023-04-19T09:18:17.837Z,50.43
2023-04-19T09:19:23.980Z,58.45
2023-04-19T09:20:18.819Z,58.93
2023-04-19T09:21:17.826Z,61.17
2023-04-19T09:22:18.059Z,64.53
2023-04-19T09:23:17.790Z,70.48
2023-04-19T09:24:17.795Z,73.66
2023-04-19T09:25:39.256Z,70.60
2023-04-19T09:26:23.349Z,70.72
2023-04-19T09:27:18.770Z,70.80
2023-04-19T09:28:17.786Z,71.53
2023-04-19T09:29:17.893Z,72.18
2023-04-19T09:30:28.138Z,72.37
2023-04-19T09:31:38.826Z,70.91
2023-04-19T09:32:18.764Z,71.00
2023-04-19T09:33:17.878Z,72.05
2023-04-19T09:34:17.720Z,74.48
2023-04-19T09:35:17.717Z,77.43
2023-04-19T09:36:17.698Z,82.79
2023-04-19T09:38:17.682Z,83.76
2023-04-19T09:39:17.811Z,85.99
2023-04-19T09:40:17.681Z,83.08
2023-04-19T09:41:17.689Z,71.29
2023-04-19T09:42:30.692Z,59.57
2023-04-19T09:46:17.687Z,60.35
2023-04-19T09:47:17.643Z,62.88
2023-04-19T09:48:17.639Z,67.78
2023-04-19T09:49:24.992Z,75.39
2023-04-19T09:50:23.912Z,60.48
2023-04-19T09:51:18.610Z,60.44
2023-04-19T09:52:17.590Z,63.60
2023-04-19T09:53:17.562Z,68.98
2023-04-19T09:54:17.596Z,75.83
2023-04-19T09:55:26.723Z,87.79
2023-04-19T09:56:18.548Z,60.42
2023-04-19T09:57:17.565Z,62.89
2023-04-19T09:58:17.546Z,64.60
2023-04-19T09:59:21.032Z,64.86
2023-04-19T10:00:17.550Z,59.98
2023-04-19T10:01:17.791Z,60.07
2023-04-19T10:02:17.659Z,59.69
2023-04-19T10:03:17.614Z,50.44
2023-04-19T10:04:28.172Z,46.93
2023-04-19T10:05:21.306Z,53.38
2023-04-19T10:07:29.497Z,49.02
2023-04-19T10:08:18.486Z,51.78
2023-04-19T10:09:17.589Z,42.75
2023-04-19T10:10:20.796Z,44.35
2023-04-19T10:11:17.452Z,42.70
2023-04-19T10:13:20.469Z,38.80
2023-04-19T10:14:17.412Z,39.90
2023-04-19T10:15:17.416Z,36.16
2023-04-19T10:16:20.233Z,32.71
2023-04-19T10:17:17.450Z,32.63
2023-04-19T10:18:17.402Z,24.85
2023-04-19T10:19:17.486Z,25.08
2023-04-19T10:20:17.373Z,26.06
2023-04-19T10:21:17.386Z,24.83
2023-04-19T10:22:17.378Z,22.03
2023-04-19T10:23:17.339Z,22.58
2023-04-19T10:24:17.363Z,21.80
2023-04-19T10:25:17.368Z,21.97
2023-04-19T10:26:17.358Z,19.51
2023-04-19T10:27:17.315Z,21.25
2023-04-19T10:28:17.356Z,19.45
2023-04-19T10:29:17.427Z,15.63
2023-04-19T10:30:17.320Z,15.90
2023-04-19T10:31:17.308Z,14.26
2023-04-19T10:32:17.341Z,14.82
2023-04-19T10:33:17.325Z,15.05
2023-04-19T10:34:17.270Z,14.73
2023-04-19T10:35:17.287Z,15.26
2023-04-19T10:36:17.503Z,14.94
2023-04-19T10:37:17.290Z,15.14
2023-04-19T10:38:17.241Z,14.92
2023-04-19T10:39:17.429Z,13.89
2023-04-19T10:40:17.252Z,13.02
2023-04-19T10:41:18.546Z,12.82
2023-04-19T10:42:17.252Z,13.12
2023-04-19T10:43:17.232Z,13.35
2023-04-19T10:44:17.218Z,12.93
2023-04-19T10:45:17.224Z,12.04
2023-04-19T10:46:17.327Z,12.41
2023-04-19T10:47:17.279Z,12.10
2023-04-19T10:48:17.195Z,11.14
2023-04-19T10:49:17.463Z,11.08
2023-04-19T10:50:17.202Z,11.10
2023-04-19T10:51:17.470Z,10.93
2023-04-19T10:52:17.172Z,10.84
2023-04-19T10:53:17.203Z,10.71
2023-04-19T10:54:17.174Z,10.75
2023-04-19T10:55:17.260Z,10.92
2023-04-19T10:56:17.262Z,10.96
2023-04-19T10:57:17.308Z,11.27
2023-04-19T10:58:17.340Z,11.01
2023-04-19T10:59:17.564Z,8.56
2023-04-19T11:00:17.396Z,8.87
2023-04-19T11:01:17.429Z,9.55
2023-04-19T11:02:17.606Z,9.32
2023-04-19T11:03:17.586Z,9.72
2023-04-19T11:04:17.698Z,10.54
2023-04-19T11:05:20.206Z,10.93
2023-04-19T11:06:17.577Z,10.80
2023-04-19T11:07:17.552Z,10.99
2023-04-19T11:08:17.532Z,10.52
2023-04-19T11:09:17.548Z,10.03
2023-04-19T11:10:17.549Z,10.43
2023-04-19T11:11:17.539Z,10.55
2023-04-19T11:12:17.506Z,10.03
2023-04-19T11:13:17.515Z,9.87
2023-04-19T11:14:18.500Z,10.30
2023-04-19T11:15:17.499Z,8.47
2023-04-19T11:16:19.392Z,8.04
2023-04-19T11:17:17.464Z,7.95
2023-04-19T11:18:17.498Z,8.08
2023-04-19T11:19:17.958Z,8.19
2023-04-19T11:20:17.469Z,7.16
2023-04-19T11:21:17.519Z,6.89
2023-04-19T11:22:17.517Z,6.78
2023-04-19T11:23:17.578Z,7.34
2023-04-19T11:24:17.581Z,7.15
2023-04-19T11:25:17.659Z,6.77
2023-04-19T11:26:17.671Z,6.44
2023-04-19T11:27:17.736Z,6.00
2023-04-19T11:28:17.761Z,5.55
2023-04-19T11:29:18.054Z,5.30
2023-04-19T11:30:17.872Z,5.70
2023-04-19T11:31:18.018Z,6.10
2023-04-19T11:32:17.912Z,6.73
2023-04-19T11:33:17.968Z,6.85
2023-04-19T11:34:18.316Z,7.06
2023-04-19T11:35:18.035Z,7.37
2023-04-19T11:36:18.055Z,7.76
2023-04-19T11:37:18.049Z,8.05
2023-04-19T11:38:18.091Z,8.12
2023-04-19T11:39:18.194Z,8.12
2023-04-19T11:40:18.174Z,8.41
2023-04-19T11:41:18.219Z,8.58
2023-04-19T11:42:18.190Z,8.09
2023-04-19T11:43:18.188Z,7.85
2023-04-19T11:44:18.682Z,7.89
2023-04-19T11:45:28.459Z,7.46
2023-04-19T11:46:19.432Z,7.47
2023-04-19T11:47:18.216Z,7.29
2023-04-19T11:48:18.252Z,7.20
2023-04-19T11:49:18.223Z,6.95
2023-04-19T11:50:18.201Z,7.29
2023-04-19T11:51:18.237Z,7.73
2023-04-19T11:52:18.209Z,7.67
2023-04-19T11:53:18.227Z,7.87
2023-04-19T11:54:19.189Z,8.07
2023-04-19T11:55:18.164Z,8.16
2023-04-19T11:56:18.230Z,8.27
2023-04-19T11:57:18.180Z,8.91
2023-04-19T11:58:18.161Z,9.53
2023-04-19T11:59:18.153Z,9.69
2023-04-19T12:00:18.151Z,9.81
2023-04-19T12:01:18.144Z,9.80
2023-04-19T12:02:18.278Z,9.85
2023-04-19T12:03:18.374Z,9.93
2023-04-19T12:04:18.595Z,9.62
2023-04-19T12:05:18.366Z,10.04
2023-04-19T12:06:18.124Z,10.08
2023-04-19T12:07:18.102Z,10.29
2023-04-19T12:08:18.079Z,10.14
2023-04-19T12:09:18.092Z,9.69
2023-04-19T12:10:18.090Z,9.04
2023-04-19T12:11:18.081Z,8.52
2023-04-19T12:12:18.074Z,7.99
2023-04-19T12:13:18.059Z,8.21
2023-04-19T12:14:18.369Z,7.29
2023-04-19T12:15:18.016Z,7.51
2023-04-19T12:16:18.015Z,7.98
2023-04-19T12:17:18.108Z,8.37
2023-04-19T12:18:18.094Z,8.10
2023-04-19T12:19:18.501Z,7.47
2023-04-19T12:20:18.012Z,7.54
2023-04-19T12:21:18.101Z,6.34
2023-04-19T12:22:18.000Z,6.76
2023-04-19T12:23:17.983Z,7.43
2023-04-19T12:24:17.961Z,7.14
2023-04-19T12:25:17.946Z,7.61
2023-04-19T12:26:17.964Z,8.00
2023-04-19T12:27:17.965Z,8.11
2023-04-19T12:28:17.978Z,7.32
2023-04-19T12:29:18.136Z,7.13
2023-04-19T12:30:17.931Z,7.44
2023-04-19T12:31:17.930Z,7.86
2023-04-19T12:32:18.696Z,8.13
2023-04-19T12:33:17.946Z,8.47
2023-04-19T12:34:17.964Z,8.17
2023-04-19T12:35:17.966Z,7.73
2023-04-19T12:36:17.969Z,8.00
2023-04-19T12:37:17.955Z,8.29
2023-04-19T12:38:17.896Z,9.09
2023-04-19T12:39:18.034Z,9.04
2023-04-19T12:40:17.933Z,7.56
2023-04-19T12:41:17.933Z,7.30
2023-04-19T12:42:17.925Z,7.43
2023-04-19T12:43:17.919Z,7.49
2023-04-19T12:44:17.916Z,7.77
2023-04-19T12:45:17.920Z,7.88
2023-04-19T12:46:17.975Z,7.35
2023-04-19T12:47:17.921Z,7.32
2023-04-19T12:48:17.938Z,7.72
2023-04-19T12:49:18.034Z,7.96
2023-04-19T12:50:17.961Z,8.00
2023-04-19T12:51:17.942Z,7.57
2023-04-19T12:52:17.972Z,7.43
2023-04-19T12:53:17.962Z,6.32
2023-04-19T12:54:17.983Z,5.99
2023-04-19T12:55:17.963Z,6.49
2023-04-19T12:56:17.933Z,6.39
2023-04-19T12:57:18.003Z,6.48
2023-04-19T12:58:18.028Z,6.02
2023-04-19T12:59:18.411Z,5.79